createdAt,value
2022-08-03T00:00:26.458Z,101709.38
2022-08-03T00:02:54.148Z,101702.97
2022-08-03T00:05:21.582Z,101706.44
2022-08-03T00:07:49.483Z,101708.66
2022-08-03T00:10:18.099Z,101706.44
2022-08-03T00:12:45.625Z,101710.72
2022-08-03T00:15:16.443Z,101704.69
2022-08-03T00:17:53.002Z,101705.19
2022-08-03T00:20:21.880Z,101702.22
2022-08-03T00:22:50.139Z,101708.44
2022-08-03T00:25:17.605Z,101704.22
2022-08-03T00:27:44.852Z,101699.06
2022-08-03T00:30:12.264Z,101703.50
2022-08-03T00:32:45.168Z,101695.34
2022-08-03T00:35:28.061Z,101703.19
2022-08-03T00:38:00.393Z,101700.78
2022-08-03T00:40:27.965Z,101692.09
2022-08-03T00:42:57.000Z,101693.34
2022-08-03T00:45:25.690Z,101698.53
2022-08-03T00:47:53.437Z,101704.09
2022-08-03T00:50:23.070Z,101704.94
2022-08-03T00:52:51.902Z,101701.00
2022-08-03T00:55:19.380Z,101699.78
2022-08-03T00:57:46.930Z,101699.78
2022-08-03T01:00:15.624Z,101701.88
2022-08-03T01:02:43.060Z,101706.44
2022-08-03T01:05:11.038Z,101697.53
2022-08-03T01:07:38.295Z,101699.63
2022-08-03T01:10:14.440Z,101707.41
2022-08-03T01:12:47.804Z,101707.41
2022-08-03T01:15:15.071Z,101717.81
2022-08-03T01:17:44.013Z,101716.59
2022-08-03T01:20:15.199Z,101716.56
2022-08-03T01:22:45.754Z,101722.13
2022-08-03T01:25:32.066Z,101713.84
2022-08-03T01:28:17.913Z,101712.00
2022-08-03T01:30:46.095Z,101706.53
2022-08-03T01:33:19.332Z,101708.66
2022-08-03T01:35:48.791Z,101714.47
2022-08-03T01:38:22.788Z,101716.81
2022-08-03T01:40:52.017Z,101715.56
2022-08-03T01:44:27.983Z,101715.31
2022-08-03T01:46:08.323Z,101711.81
2022-08-03T01:48:37.934Z,101717.06
2022-08-03T01:51:06.177Z,101716.44
2022-08-03T01:53:34.023Z,101715.81
2022-08-03T01:56:02.677Z,101715.09
2022-08-03T01:58:30.077Z,101718.28
2022-08-03T02:01:01.176Z,101720.63
2022-08-03T02:03:29.768Z,101718.41
2022-08-03T02:06:55.637Z,101715.31
2022-08-03T02:08:47.459Z,101723.25
2022-08-03T02:11:15.329Z,101716.28
2022-08-03T02:13:44.283Z,101702.47
2022-08-03T02:16:12.521Z,101702.72
2022-08-03T02:18:40.704Z,101700.50
2022-08-03T02:21:11.045Z,101703.22
2022-08-03T02:23:38.888Z,101696.91
2022-08-03T02:26:09.411Z,101700.63
2022-08-03T02:28:38.796Z,101706.69
2022-08-03T02:31:11.805Z,101708.41
2022-08-03T02:33:41.435Z,101707.69
2022-08-03T02:36:11.453Z,101704.22
2022-08-03T02:38:41.337Z,101705.94
2022-08-03T02:41:13.674Z,101709.66
2022-08-03T02:44:06.333Z,101700.00
2022-08-03T02:46:33.792Z,101697.28
2022-08-03T02:49:42.608Z,101691.38
2022-08-03T02:51:52.412Z,101702.72
2022-08-03T02:54:20.216Z,101698.78
2022-08-03T02:56:48.669Z,101702.22
2022-08-03T02:59:18.760Z,101699.28
2022-08-03T03:01:46.733Z,101702.22
2022-08-03T03:04:14.500Z,101701.97
2022-08-03T03:06:43.107Z,101710.38
2022-08-03T03:09:14.355Z,101706.44
2022-08-03T03:11:42.679Z,101703.88
2022-08-03T03:14:11.377Z,101700.94
2022-08-03T03:16:39.541Z,101699.75
2022-08-03T03:19:08.059Z,101702.22
2022-08-03T03:21:36.732Z,101700.47
2022-08-03T03:24:05.304Z,101699.97
2022-08-03T03:26:33.346Z,101697.63
2022-08-03T03:29:01.905Z,101699.53
2022-08-03T03:31:29.658Z,101708.16
2022-08-03T03:33:59.853Z,101704.72
2022-08-03T03:36:27.261Z,101711.88
2022-08-03T03:38:54.540Z,101707.44
2022-08-03T03:41:21.822Z,101712.22
2022-08-03T03:43:49.778Z,101714.00
2022-08-03T03:46:18.934Z,101711.63
2022-08-03T03:48:46.213Z,101725.69
2022-08-03T03:51:13.489Z,101723.94
2022-08-03T03:53:40.869Z,101730.16
2022-08-03T03:56:08.237Z,101730.38
2022-08-03T03:58:35.473Z,101732.53
2022-08-03T04:01:02.925Z,101735.81
2022-08-03T04:03:30.422Z,101736.06
2022-08-03T04:06:16.467Z,101734.59
2022-08-03T04:09:02.059Z,101737.66
2022-08-03T04:11:32.190Z,101733.94
2022-08-03T04:14:05.323Z,101737.75
2022-08-03T04:16:35.226Z,101742.50
2022-08-03T04:19:04.832Z,101736.84
2022-08-03T04:21:32.705Z,101747.91
2022-08-03T04:24:01.987Z,101734.59
2022-08-03T04:26:31.631Z,101738.50
2022-08-03T04:28:59.125Z,101745.19
2022-08-03T04:31:27.404Z,101736.94
2022-08-03T04:33:55.520Z,101742.50
2022-08-03T04:36:25.222Z,101745.69
2022-08-03T04:38:52.825Z,101751.75
2022-08-03T04:41:21.109Z,101754.63
2022-08-03T04:43:49.384Z,101751.16
2022-08-03T04:46:17.323Z,101752.63
2022-08-03T04:48:46.302Z,101759.34
2022-08-03T04:51:16.616Z,101761.78
2022-08-03T04:53:44.382Z,101757.09
2022-08-03T04:56:11.738Z,101763.50
2022-08-03T04:58:39.076Z,101756.84
2022-08-03T05:01:06.343Z,101755.63
2022-08-03T05:03:33.677Z,101761.03
2022-08-03T05:06:09.353Z,101758.06
2022-08-03T05:08:46.454Z,101760.31
2022-08-03T05:11:15.348Z,101758.44
2022-08-03T05:13:42.915Z,101760.72
2022-08-03T05:16:10.338Z,101767.03
2022-08-03T05:18:37.750Z,101777.41
2022-08-03T05:21:05.213Z,101766.53
2022-08-03T05:23:32.473Z,101766.00
2022-08-03T05:25:59.790Z,101767.97
2022-08-03T05:28:27.149Z,101768.97
2022-08-03T05:30:54.405Z,101773.69
2022-08-03T05:33:21.636Z,101767.50
2022-08-03T05:35:55.865Z,101765.03
2022-08-03T05:38:34.034Z,101769.25
2022-08-03T05:41:22.065Z,101766.75
2022-08-03T05:43:52.135Z,101775.91
2022-08-03T05:46:19.584Z,101781.78
2022-08-03T05:48:46.956Z,101770.69
2022-08-03T05:51:14.281Z,101768.97
2022-08-03T05:53:42.440Z,101775.00
2022-08-03T05:56:14.119Z,101771.22
2022-08-03T05:58:44.539Z,101781.09
2022-08-03T06:01:11.933Z,101780.59
2022-08-03T06:03:39.617Z,101785.47
2022-08-03T06:06:06.960Z,101786.28
2022-08-03T06:08:34.599Z,101781.00
2022-08-03T06:11:01.878Z,101786.94
2022-08-03T06:13:29.738Z,101794.88
2022-08-03T06:15:57.287Z,101795.31
2022-08-03T06:18:24.763Z,101795.84
2022-08-03T06:20:52.502Z,101801.28
2022-08-03T06:23:20.108Z,101798.78
2022-08-03T06:25:47.618Z,101800.72
2022-08-03T06:28:42.399Z,101805.81
2022-08-03T06:31:02.902Z,101802.28
2022-08-03T06:34:30.136Z,101795.94
2022-08-03T06:36:17.464Z,101809.50
2022-08-03T06:38:44.729Z,101805.31
2022-08-03T06:41:12.097Z,101807.44
2022-08-03T06:44:03.097Z,101803.09
2022-08-03T06:46:26.909Z,101809.25
2022-08-03T06:48:55.123Z,101802.72
2022-08-03T06:52:02.696Z,101800.25
2022-08-03T06:54:11.197Z,101803.81
2022-08-03T06:56:38.422Z,101799.81
2022-08-03T06:59:05.664Z,101807.66
2022-08-03T07:01:33.006Z,101803.22
2022-08-03T07:04:01.301Z,101810.94
2022-08-03T07:06:28.550Z,101806.44
2022-08-03T07:08:59.577Z,101809.81
2022-08-03T07:11:28.655Z,101803.09
2022-08-03T07:13:56.557Z,101804.19
2022-08-03T07:16:23.833Z,101811.13
2022-08-03T07:18:51.386Z,101808.22
2022-08-03T07:21:18.739Z,101804.63
2022-08-03T07:23:45.992Z,101801.88
2022-08-03T07:26:13.373Z,101801.34
2022-08-03T07:28:40.708Z,101796.47
2022-08-03T07:31:08.090Z,101799.16
2022-08-03T07:33:35.441Z,101802.44
2022-08-03T07:36:02.847Z,101792.69
2022-08-03T07:38:30.157Z,101798.47
2022-08-03T07:40:57.456Z,101804.81
2022-08-03T07:43:25.370Z,101803.31
2022-08-03T07:45:52.770Z,101805.34
2022-08-03T07:48:20.108Z,101790.69
2022-08-03T07:50:47.593Z,101796.72
2022-08-03T07:53:14.906Z,101794.44
2022-08-03T07:55:42.545Z,101798.13
2022-08-03T07:58:12.595Z,101800.47
2022-08-03T08:00:39.989Z,101796.47
2022-08-03T08:03:07.230Z,101800.00
2022-08-03T08:05:34.747Z,101796.41
2022-08-03T08:08:02.426Z,101795.91
2022-08-03T08:10:29.891Z,101800.25
2022-08-03T08:12:57.577Z,101795.00
2022-08-03T08:15:25.229Z,101795.84
2022-08-03T08:17:54.012Z,101803.09
2022-08-03T08:20:28.292Z,101802.25
2022-08-03T08:23:02.851Z,101793.50
2022-08-03T08:25:31.697Z,101803.19
2022-08-03T08:28:31.518Z,101799.34
2022-08-03T08:30:50.054Z,101795.84
2022-08-03T08:33:23.380Z,101800.16
2022-08-03T08:35:53.191Z,101802.59
2022-08-03T08:38:20.756Z,101800.19
2022-08-03T08:40:48.942Z,101801.22
2022-08-03T08:43:16.285Z,101795.25
2022-08-03T08:45:43.890Z,101799.88
2022-08-03T08:48:13.183Z,101793.31
2022-08-03T08:50:40.953Z,101798.47
2022-08-03T08:53:17.590Z,101798.31
2022-08-03T08:55:58.417Z,101801.31
2022-08-03T08:58:34.734Z,101794.59
2022-08-03T09:01:02.186Z,101802.50
2022-08-03T09:03:30.808Z,101797.31
2022-08-03T09:05:59.496Z,101795.88
2022-08-03T09:08:26.778Z,101774.63
2022-08-03T09:10:54.166Z,101792.72
2022-08-03T09:13:21.495Z,101806.22
2022-08-03T09:15:52.746Z,101799.66
2022-08-03T09:18:32.331Z,101794.47
2022-08-03T09:21:30.158Z,101806.81
2022-08-03T09:24:04.197Z,101793.00
2022-08-03T09:26:34.818Z,101789.88
2022-08-03T09:29:08.149Z,101806.22
2022-08-03T09:31:39.775Z,101805.91
2022-08-03T09:34:14.696Z,101809.72
2022-08-03T09:36:45.895Z,101798.03
2022-08-03T09:39:14.663Z,101799.88
2022-08-03T09:42:02.156Z,101805.41
2022-08-03T09:44:36.914Z,101791.44
2022-08-03T09:47:06.141Z,101799.00
2022-08-03T09:49:33.651Z,101794.84
2022-08-03T09:52:30.114Z,101794.41
2022-08-03T09:54:52.141Z,101792.34
2022-08-03T09:57:26.373Z,101792.63
2022-08-03T10:00:04.441Z,101789.44
2022-08-03T10:02:40.043Z,101787.19
2022-08-03T10:05:08.561Z,101792.88
2022-08-03T10:07:45.943Z,101789.41
2022-08-03T10:10:29.080Z,101788.88
2022-08-03T10:13:00.293Z,101782.09
2022-08-03T10:16:21.600Z,101786.88
2022-08-03T10:18:15.304Z,101786.78
2022-08-03T10:20:51.791Z,101780.56
2022-08-03T10:23:21.644Z,101784.84
2022-08-03T10:25:52.601Z,101783.72
2022-08-03T10:28:21.336Z,101786.66
2022-08-03T10:30:50.863Z,101782.94
2022-08-03T10:33:51.834Z,101780.44
2022-08-03T10:36:07.784Z,101778.00
2022-08-03T10:38:40.512Z,101771.94
2022-08-03T10:41:08.902Z,101773.53
2022-08-03T10:43:39.278Z,101772.13
2022-08-03T10:46:08.685Z,101770.38
2022-08-03T10:48:36.742Z,101766.38
2022-08-03T10:51:04.933Z,101759.00
2022-08-03T10:53:36.619Z,101773.09
2022-08-03T10:56:41.504Z,101767.66
2022-08-03T10:59:10.563Z,101765.25
2022-08-03T11:01:58.285Z,101757.00
2022-08-03T11:04:30.302Z,101765.56
2022-08-03T11:07:16.893Z,101767.38
2022-08-03T11:09:48.779Z,101776.56
2022-08-03T11:12:30.062Z,101765.63
2022-08-03T11:15:00.484Z,101761.13
2022-08-03T11:17:28.011Z,101776.72
2022-08-03T11:19:57.049Z,101771.31
2022-08-03T11:22:26.222Z,101770.22
2022-08-03T11:24:57.612Z,101762.66
2022-08-03T11:27:26.331Z,101765.84
2022-08-03T11:30:09.362Z,101772.28
2022-08-03T11:32:50.484Z,101774.91
2022-08-03T11:35:21.884Z,101772.13
2022-08-03T11:38:04.450Z,101759.53
2022-08-03T11:40:32.664Z,101764.50
2022-08-03T11:42:59.919Z,101766.44
2022-08-03T11:45:27.363Z,101767.84
2022-08-03T11:47:55.469Z,101761.22
2022-08-03T11:50:24.106Z,101764.41
2022-08-03T11:52:51.660Z,101765.03
2022-08-03T11:55:21.824Z,101765.41
2022-08-03T11:59:01.219Z,101774.00
2022-08-03T12:00:37.570Z,101772.13
2022-08-03T12:03:06.313Z,101769.50
2022-08-03T12:05:37.919Z,101770.19
2022-08-03T12:08:07.210Z,101766.19
2022-08-03T12:10:35.377Z,101766.25
2022-08-03T12:13:05.891Z,101771.22
2022-08-03T12:15:54.165Z,101769.50
2022-08-03T12:18:22.474Z,101780.56
2022-08-03T12:20:50.945Z,101773.56
2022-08-03T12:23:18.652Z,101767.88
2022-08-03T12:25:47.139Z,101773.88
2022-08-03T12:28:31.815Z,101764.69
2022-08-03T12:31:09.548Z,101766.66
2022-08-03T12:33:56.638Z,101756.06
2022-08-03T12:36:24.305Z,101762.44
2022-08-03T12:39:08.222Z,101767.88
2022-08-03T12:41:36.857Z,101768.94
2022-08-03T12:44:05.987Z,101764.63
2022-08-03T12:46:34.887Z,101766.28
2022-08-03T12:49:12.219Z,101765.38
2022-08-03T12:51:42.525Z,101764.16
2022-08-03T12:54:24.540Z,101764.72
2022-08-03T12:57:02.536Z,101767.50
2022-08-03T12:59:35.441Z,101767.66
2022-08-03T13:02:18.489Z,101770.50
2022-08-03T13:04:47.367Z,101764.78
2022-08-03T13:07:15.323Z,101768.69
2022-08-03T13:09:50.391Z,101766.16
2022-08-03T13:12:19.041Z,101764.22
2022-08-03T13:14:48.973Z,101763.28
2022-08-03T13:17:19.590Z,101769.00
2022-08-03T13:19:47.843Z,101762.94
2022-08-03T13:22:16.727Z,101773.91
2022-08-03T13:24:45.010Z,101773.31
2022-08-03T13:28:02.291Z,101764.38
2022-08-03T13:30:00.396Z,101760.13
2022-08-03T13:32:27.726Z,101758.69
2022-08-03T13:34:55.013Z,101749.72
2022-08-03T13:37:22.639Z,101754.56
2022-08-03T13:39:59.042Z,101749.16
2022-08-03T13:42:34.115Z,101752.97
2022-08-03T13:45:01.995Z,101743.16
2022-08-03T13:47:29.368Z,101735.66
2022-08-03T13:50:01.877Z,101744.19
2022-08-03T13:52:32.103Z,101743.09
2022-08-03T13:55:00.226Z,101741.59
2022-08-03T13:58:03.293Z,101745.38
2022-08-03T14:00:28.034Z,101741.31
2022-08-03T14:03:06.583Z,101736.09
2022-08-03T14:05:39.621Z,101735.41
2022-08-03T14:08:07.422Z,101744.44
2022-08-03T14:10:35.583Z,101743.59
2022-08-03T14:13:04.168Z,101731.03
2022-08-03T14:15:31.767Z,101734.66
2022-08-03T14:17:59.146Z,101728.75
2022-08-03T14:20:38.513Z,101731.53
2022-08-03T14:23:14.871Z,101723.22
2022-08-03T14:25:43.432Z,101732.09
2022-08-03T14:28:18.992Z,101737.25
2022-08-03T14:30:46.307Z,101726.09
2022-08-03T14:33:13.568Z,101724.66
2022-08-03T14:35:40.877Z,101725.75
2022-08-03T14:38:08.275Z,101721.19
2022-08-03T14:40:35.496Z,101723.75
2022-08-03T14:43:02.808Z,101729.75
2022-08-03T14:45:30.148Z,101720.28
2022-08-03T14:50:33.697Z,101724.56
2022-08-03T14:50:51.389Z,101715.91
2022-08-03T14:53:19.898Z,101712.53
2022-08-03T14:55:51.319Z,101713.13
2022-08-03T14:58:21.018Z,101711.13
2022-08-03T15:00:49.540Z,101710.88
2022-08-03T15:03:20.419Z,101715.84
2022-08-03T15:05:47.919Z,101709.66
2022-08-03T15:08:15.346Z,101715.19
2022-08-03T15:10:44.895Z,101720.34
2022-08-03T15:13:13.638Z,101708.91
2022-08-03T15:15:41.543Z,101721.03
2022-08-03T15:18:08.949Z,101718.31
2022-08-03T15:20:44.438Z,101717.16
2022-08-03T15:23:13.545Z,101718.22
2022-08-03T15:26:03.908Z,101714.19
2022-08-03T15:28:28.228Z,101711.78
2022-08-03T15:30:55.582Z,101706.56
2022-08-03T15:33:22.983Z,101710.78
2022-08-03T15:35:50.307Z,101707.56
2022-08-03T15:38:17.772Z,101701.56
2022-08-03T15:40:45.312Z,101708.47
2022-08-03T15:43:12.775Z,101701.63
2022-08-03T15:45:40.701Z,101695.56
2022-08-03T15:48:09.486Z,101695.44
2022-08-03T15:50:36.763Z,101690.88
2022-08-03T15:53:04.271Z,101689.22
2022-08-03T15:55:31.982Z,101690.59
2022-08-03T15:59:04.099Z,101688.63
2022-08-03T16:00:46.988Z,101683.75
2022-08-03T16:03:14.348Z,101688.03
2022-08-03T16:05:41.780Z,101683.75
2022-08-03T16:08:13.348Z,101685.75
2022-08-03T16:10:41.289Z,101680.28
2022-08-03T16:13:08.600Z,101678.59
2022-08-03T16:15:38.623Z,101681.44
2022-08-03T16:18:06.984Z,101684.59
2022-08-03T16:20:35.352Z,101680.25
2022-08-03T16:23:08.504Z,101682.56
2022-08-03T16:25:39.617Z,101674.81
2022-08-03T16:28:13.170Z,101682.28
2022-08-03T16:30:44.489Z,101681.44
2022-08-03T16:33:17.431Z,101669.34
2022-08-03T16:35:46.575Z,101679.41
2022-08-03T16:38:18.533Z,101671.25
2022-08-03T16:40:52.291Z,101669.06
2022-08-03T16:43:20.531Z,101661.31
2022-08-03T16:45:47.791Z,101666.00
2022-08-03T16:48:15.513Z,101653.75
2022-08-03T16:50:43.297Z,101661.31
2022-08-03T16:53:15.533Z,101656.69
2022-08-03T16:55:51.890Z,101655.56
2022-08-03T16:58:34.607Z,101659.28
2022-08-03T17:01:20.956Z,101652.66
2022-08-03T17:03:57.152Z,101656.66
2022-08-03T17:06:34.248Z,101653.22
2022-08-03T17:09:04.016Z,101661.84
2022-08-03T17:11:46.833Z,101651.47
2022-08-03T17:14:22.069Z,101655.53
2022-08-03T17:16:52.627Z,101652.19
2022-08-03T17:19:23.308Z,101663.91
2022-08-03T17:22:01.578Z,101656.97
2022-08-03T17:24:33.559Z,101659.19
2022-08-03T17:27:03.332Z,101661.09
2022-08-03T17:29:32.954Z,101663.94
2022-08-03T17:32:07.799Z,101665.47
2022-08-03T17:34:38.425Z,101670.00
2022-08-03T17:37:07.153Z,101659.38
2022-08-03T17:39:59.479Z,101660.34
2022-08-03T17:42:38.848Z,101670.22
2022-08-03T17:45:07.381Z,101660.31
2022-08-03T17:47:42.735Z,101656.25
2022-08-03T17:53:15.532Z,101638.03
2022-08-03T17:56:04.180Z,101654.53
2022-08-03T17:58:41.324Z,101663.53
2022-08-03T18:01:57.446Z,101663.34
2022-08-03T18:04:29.830Z,101656.06
2022-08-03T18:06:59.327Z,101663.13
2022-08-03T18:10:04.807Z,101669.91
2022-08-03T18:12:18.631Z,101661.31
2022-08-03T18:14:57.385Z,101665.53
2022-08-03T18:17:55.201Z,101662.66
2022-08-03T18:20:33.134Z,101668.47
2022-08-03T18:23:04.976Z,101665.66
2022-08-03T18:25:45.292Z,101675.84
2022-08-03T18:28:18.818Z,101670.28
2022-08-03T18:30:54.688Z,101665.78
2022-08-03T18:34:17.504Z,101672.34
2022-08-03T18:36:17.991Z,101680.97
2022-08-03T18:38:51.100Z,101678.28
2022-08-03T18:41:32.943Z,101674.69
2022-08-03T18:44:07.310Z,101683.72
2022-08-03T18:46:46.574Z,101685.34
2022-08-03T18:49:47.604Z,101685.97
2022-08-03T18:52:30.774Z,101698.19
2022-08-03T18:55:09.414Z,101694.34
2022-08-03T18:57:53.290Z,101687.75
2022-08-03T19:00:24.262Z,101695.38
2022-08-03T19:03:09.375Z,101696.56
2022-08-03T19:06:02.715Z,101697.09
2022-08-03T19:08:50.401Z,101694.59
2022-08-03T19:11:28.089Z,101693.69
2022-08-03T19:13:56.785Z,101680.22
2022-08-03T19:16:38.723Z,101695.34
2022-08-03T19:19:10.761Z,101688.63
2022-08-03T19:21:41.856Z,101690.00
2022-08-03T19:24:10.196Z,101685.91
2022-08-03T19:26:39.780Z,101694.13
2022-08-03T19:29:10.802Z,101691.81
2022-08-03T19:31:54.437Z,101698.94
2022-08-03T19:34:28.212Z,101699.72
2022-08-03T19:36:58.407Z,101692.91
2022-08-03T19:39:26.095Z,101697.84
2022-08-03T19:41:58.470Z,101696.38
2022-08-03T19:44:38.342Z,101696.66
2022-08-03T19:47:16.938Z,101689.91
2022-08-03T19:49:57.104Z,101695.66
2022-08-03T19:52:35.560Z,101692.44
2022-08-03T19:55:06.657Z,101699.66
2022-08-03T19:57:34.255Z,101691.53
2022-08-03T20:02:50.953Z,101694.47
2022-08-03T20:05:18.688Z,101700.00
2022-08-03T20:07:47.655Z,101706.50
2022-08-03T20:10:16.738Z,101693.75
2022-08-03T20:12:45.122Z,101704.78
2022-08-03T20:15:12.459Z,101708.59
2022-08-03T20:17:56.592Z,101701.94
2022-08-03T20:20:30.702Z,101713.69
2022-08-03T20:22:58.919Z,101710.34
2022-08-03T20:31:36.359Z,101706.31
2022-08-03T20:34:04.321Z,101704.88
2022-08-03T20:36:31.580Z,101714.97
2022-08-03T20:38:59.818Z,101711.16
2022-08-03T20:41:27.205Z,101713.94
2022-08-03T20:43:54.820Z,101709.72
2022-08-03T20:46:30.833Z,101717.16
2022-08-03T20:49:09.917Z,101711.56
2022-08-03T20:51:52.715Z,101712.34
2022-08-03T20:54:31.311Z,101714.16
2022-08-03T20:57:03.933Z,101720.81
2022-08-03T20:59:47.126Z,101726.25
2022-08-03T21:02:29.766Z,101719.88
2022-08-03T21:04:59.120Z,101720.22
2022-08-03T21:08:05.438Z,101726.00
2022-08-03T21:10:28.409Z,101723.03
2022-08-03T21:12:55.448Z,101659.44
2022-08-03T21:13:09.879Z,101703.47
2022-08-03T21:13:14.147Z,101723.53
2022-08-03T21:16:06.954Z,101723.13
2022-08-03T21:18:31.112Z,101717.69
2022-08-03T21:21:00.209Z,101722.56
2022-08-03T21:23:40.465Z,101722.84
2022-08-03T21:26:16.835Z,101714.13
2022-08-03T21:28:45.375Z,101722.56
2022-08-03T21:31:13.529Z,101730.63
2022-08-03T21:33:40.999Z,101728.47
2022-08-03T21:36:14.963Z,101729.16
2022-08-03T21:38:43.877Z,101717.97
2022-08-03T21:41:14.764Z,101718.41
2022-08-03T21:43:42.023Z,101724.53
2022-08-03T21:46:12.225Z,101726.28
2022-08-03T21:48:40.373Z,101732.06
2022-08-03T21:51:08.921Z,101723.41
2022-08-03T21:54:04.181Z,101724.81
2022-08-03T21:56:26.170Z,101734.75
2022-08-03T21:58:56.080Z,101731.41
2022-08-03T22:01:27.392Z,101721.31
2022-08-03T22:04:03.583Z,101725.41
2022-08-03T22:06:30.899Z,101727.97
2022-08-03T22:08:58.384Z,101729.72
2022-08-03T22:11:25.708Z,101722.50
2022-08-03T22:13:53.277Z,101725.66
2022-08-03T22:16:21.139Z,101718.19
2022-08-03T22:18:48.659Z,101723.53
2022-08-03T22:21:17.155Z,101720.97
2022-08-03T22:23:57.288Z,101719.97
2022-08-03T22:26:32.377Z,101721.41
2022-08-03T22:29:06.277Z,101721.25
2022-08-03T22:31:58.363Z,101719.69
2022-08-03T22:34:26.859Z,101725.28
2022-08-03T22:36:55.742Z,101726.59
2022-08-03T22:39:27.345Z,101724.53
2022-08-03T22:41:55.582Z,101725.72
2022-08-03T22:44:23.210Z,101724.75
2022-08-03T22:46:50.613Z,101718.53
2022-08-03T22:49:18.171Z,101723.97
2022-08-03T22:51:46.080Z,101717.38
2022-08-03T22:54:13.916Z,101722.25
2022-08-03T22:56:41.492Z,101721.25
2022-08-03T22:59:39.989Z,101722.41
2022-08-03T23:02:00.619Z,101717.97
2022-08-03T23:04:31.910Z,101719.53
2022-08-03T23:07:02.876Z,101720.53
2022-08-03T23:09:31.236Z,101717.38
2022-08-03T23:12:00.424Z,101716.22
2022-08-03T23:14:30.320Z,101716.53
2022-08-03T23:17:00.991Z,101719.41
2022-08-03T23:19:30.255Z,101720.25
2022-08-03T23:22:04.058Z,101719.41
2022-08-03T23:24:34.588Z,101727.09
2022-08-03T23:27:05.740Z,101726.56
2022-08-03T23:29:37.043Z,101721.38
2022-08-03T23:32:05.130Z,101722.25
2022-08-03T23:34:51.213Z,101726.28
2022-08-03T23:37:21.219Z,101723.69
2022-08-03T23:39:49.070Z,101725.72
2022-08-03T23:42:19.946Z,101716.81
2022-08-03T23:44:47.506Z,101714.50
2022-08-03T23:47:14.821Z,101714.63
2022-08-03T23:49:42.250Z,101721.09
2022-08-03T23:52:13.653Z,101720.78
2022-08-03T23:54:59.340Z,101719.09
2022-08-03T23:57:29.367Z,101725.94
